sensor_id;sensor_type;location;lat;lon;timestamp;P1;P2;P0
67892;PMS7003;54688;52.376;16.744;2024-02-16T00:02:32;53;37;
67892;PMS7003;54688;52.376;16.744;2024-02-16T00:05:34;43;37;
67892;PMS7003;54688;52.376;16.744;2024-02-16T00:08:36;48;37;
67892;PMS7003;54688;52.376;16.744;2024-02-16T00:11:38;49;36;
67892;PMS7003;54688;52.376;16.744;2024-02-16T00:14:41;48;39;
67892;PMS7003;54688;52.376;16.744;2024-02-16T00:17:43;47;37;
67892;PMS7003;54688;52.376;16.744;2024-02-16T00:20:46;47;39;
67892;PMS7003;54688;52.376;16.744;2024-02-16T00:23:48;45;36;
67892;PMS7003;54688;52.376;16.744;2024-02-16T00:26:51;43;35;
67892;PMS7003;54688;52.376;16.744;2024-02-16T00:29:53;44;35;
67892;PMS7003;54688;52.376;16.744;2024-02-16T00:32:56;44;35;
67892;PMS7003;54688;52.376;16.744;2024-02-16T00:35:58;44;35;
67892;PMS7003;54688;52.376;16.744;2024-02-16T00:39:02;49;36;
67892;PMS7003;54688;52.376;16.744;2024-02-16T00:42:05;37;33;
67892;PMS7003;54688;52.376;16.744;2024-02-16T00:45:08;42;33;
67892;PMS7003;54688;52.376;16.744;2024-02-16T00:48:11;43;36;
67892;PMS7003;54688;52.376;16.744;2024-02-16T00:51:14;40;33;
67892;PMS7003;54688;52.376;16.744;2024-02-16T00:54:18;49;38;
67892;PMS7003;54688;52.376;16.744;2024-02-16T00:57:21;59;47;
67892;PMS7003;54688;52.376;16.744;2024-02-16T01:00:24;60;48;
67892;PMS7003;54688;52.376;16.744;2024-02-16T01:03:26;55;44;
67892;PMS7003;54688;52.376;16.744;2024-02-16T01:06:29;52;42;
67892;PMS7003;54688;52.376;16.744;2024-02-16T01:09:31;62;48;
67892;PMS7003;54688;52.376;16.744;2024-02-16T01:12:34;48;39;
67892;PMS7003;54688;52.376;16.744;2024-02-16T01:15:36;50;39;
67892;PMS7003;54688;52.376;16.744;2024-02-16T01:18:39;47;38;
67892;PMS7003;54688;52.376;16.744;2024-02-16T01:21:42;46;38;
67892;PMS7003;54688;52.376;16.744;2024-02-16T01:24:44;41;33;
67892;PMS7003;54688;52.376;16.744;2024-02-16T01:27:46;58;46;
67892;PMS7003;54688;52.376;16.744;2024-02-16T01:30:49;62;48;
67892;PMS7003;54688;52.376;16.744;2024-02-16T01:33:53;61;49;
67892;PMS7003;54688;52.376;16.744;2024-02-16T01:36:55;59;44;
67892;PMS7003;54688;52.376;16.744;2024-02-16T01:39:58;52;42;
67892;PMS7003;54688;52.376;16.744;2024-02-16T01:43:01;50;41;
67892;PMS7003;54688;52.376;16.744;2024-02-16T01:46:04;48;39;
67892;PMS7003;54688;52.376;16.744;2024-02-16T01:49:06;44;36;
67892;PMS7003;54688;52.376;16.744;2024-02-16T01:52:09;46;38;
67892;PMS7003;54688;52.376;16.744;2024-02-16T01:55:13;49;39;
67892;PMS7003;54688;52.376;16.744;2024-02-16T01:58:16;55;44;
67892;PMS7003;54688;52.376;16.744;2024-02-16T02:01:18;57;45;
67892;PMS7003;54688;52.376;16.744;2024-02-16T02:04:21;57;47;
67892;PMS7003;54688;52.376;16.744;2024-02-16T02:07:25;55;44;
67892;PMS7003;54688;52.376;16.744;2024-02-16T02:10:28;47;40;
67892;PMS7003;54688;52.376;16.744;2024-02-16T02:13:30;69;53;
67892;PMS7003;54688;52.376;16.744;2024-02-16T02:16:33;54;43;
67892;PMS7003;54688;52.376;16.744;2024-02-16T02:19:35;62;46;
67892;PMS7003;54688;52.376;16.744;2024-02-16T02:22:46;64;48;
67892;PMS7003;54688;52.376;16.744;2024-02-16T02:25:49;56;46;
67892;PMS7003;54688;52.376;16.744;2024-02-16T02:28:51;44;36;
67892;PMS7003;54688;52.376;16.744;2024-02-16T02:31:53;31;29;
67892;PMS7003;54688;52.376;16.744;2024-02-16T02:34:55;46;37;
67892;PMS7003;54688;52.376;16.744;2024-02-16T02:37:58;33;30;
67892;PMS7003;54688;52.376;16.744;2024-02-16T02:41:01;34;31;
67892;PMS7003;54688;52.376;16.744;2024-02-16T02:44:04;38;31;
67892;PMS7003;54688;52.376;16.744;2024-02-16T02:47:06;32;28;
67892;PMS7003;54688;52.376;16.744;2024-02-16T02:50:09;34;31;
67892;PMS7003;54688;52.376;16.744;2024-02-16T02:53:11;35;31;
67892;PMS7003;54688;52.376;16.744;2024-02-16T02:56:14;38;30;
67892;PMS7003;54688;52.376;16.744;2024-02-16T02:59:16;30;28;
67892;PMS7003;54688;52.376;16.744;2024-02-16T03:02:18;33;26;
67892;PMS7003;54688;52.376;16.744;2024-02-16T03:05:20;29;26;
67892;PMS7003;54688;52.376;16.744;2024-02-16T03:08:23;35;32;
67892;PMS7003;54688;52.376;16.744;2024-02-16T03:11:25;37;29;
67892;PMS7003;54688;52.376;16.744;2024-02-16T03:14:26;33;30;
67892;PMS7003;54688;52.376;16.744;2024-02-16T03:17:29;40;32;
67892;PMS7003;54688;52.376;16.744;2024-02-16T03:20:31;39;34;
67892;PMS7003;54688;52.376;16.744;2024-02-16T03:23:34;36;32;
67892;PMS7003;54688;52.376;16.744;2024-02-16T03:26:36;39;35;
67892;PMS7003;54688;52.376;16.744;2024-02-16T03:29:39;47;36;
67892;PMS7003;54688;52.376;16.744;2024-02-16T03:32:41;35;31;
67892;PMS7003;54688;52.376;16.744;2024-02-16T03:35:44;48;38;
67892;PMS7003;54688;52.376;16.744;2024-02-16T03:38:47;45;38;
67892;PMS7003;54688;52.376;16.744;2024-02-16T03:41:49;48;38;
67892;PMS7003;54688;52.376;16.744;2024-02-16T03:44:51;47;38;
67892;PMS7003;54688;52.376;16.744;2024-02-16T03:47:53;43;34;
67892;PMS7003;54688;52.376;16.744;2024-02-16T03:50:55;44;35;
67892;PMS7003;54688;52.376;16.744;2024-02-16T03:53:58;49;39;
67892;PMS7003;54688;52.376;16.744;2024-02-16T03:57:01;49;34;
67892;PMS7003;54688;52.376;16.744;2024-02-16T04:00:04;60;44;
67892;PMS7003;54688;52.376;16.744;2024-02-16T04:03:07;65;51;
67892;PMS7003;54688;52.376;16.744;2024-02-16T04:06:09;64;50;
67892;PMS7003;54688;52.376;16.744;2024-02-16T04:09:12;66;50;
67892;PMS7003;54688;52.376;16.744;2024-02-16T04:12:15;64;49;
67892;PMS7003;54688;52.376;16.744;2024-02-16T04:15:18;66;52;
67892;PMS7003;54688;52.376;16.744;2024-02-16T04:18:21;76;63;
67892;PMS7003;54688;52.376;16.744;2024-02-16T04:21:23;77;69;
67892;PMS7003;54688;52.376;16.744;2024-02-16T04:24:25;74;57;
67892;PMS7003;54688;52.376;16.744;2024-02-16T04:27:27;69;53;
67892;PMS7003;54688;52.376;16.744;2024-02-16T04:30:30;67;52;
67892;PMS7003;54688;52.376;16.744;2024-02-16T04:33:31;70;56;
67892;PMS7003;54688;52.376;16.744;2024-02-16T04:36:34;65;49;
67892;PMS7003;54688;52.376;16.744;2024-02-16T04:39:36;63;47;
67892;PMS7003;54688;52.376;16.744;2024-02-16T04:42:38;57;46;
67892;PMS7003;54688;52.376;16.744;2024-02-16T04:45:40;62;48;
67892;PMS7003;54688;52.376;16.744;2024-02-16T04:48:43;57;45;
67892;PMS7003;54688;52.376;16.744;2024-02-16T04:51:45;54;42;
67892;PMS7003;54688;52.376;16.744;2024-02-16T04:54:47;51;40;
67892;PMS7003;54688;52.376;16.744;2024-02-16T04:57:49;49;40;
67892;PMS7003;54688;52.376;16.744;2024-02-16T05:00:51;47;40;
67892;PMS7003;54688;52.376;16.744;2024-02-16T05:03:53;52;42;
67892;PMS7003;54688;52.376;16.744;2024-02-16T05:06:56;52;40;
67892;PMS7003;54688;52.376;16.744;2024-02-16T05:09:59;50;40;
67892;PMS7003;54688;52.376;16.744;2024-02-16T05:13:01;50;41;
67892;PMS7003;54688;52.376;16.744;2024-02-16T05:16:07;53;42;
67892;PMS7003;54688;52.376;16.744;2024-02-16T05:19:10;57;44;
67892;PMS7003;54688;52.376;16.744;2024-02-16T05:22:12;54;44;
67892;PMS7003;54688;52.376;16.744;2024-02-16T05:25:14;56;45;
67892;PMS7003;54688;52.376;16.744;2024-02-16T05:28:17;54;43;
67892;PMS7003;54688;52.376;16.744;2024-02-16T05:31:19;47;39;
67892;PMS7003;54688;52.376;16.744;2024-02-16T05:34:21;46;36;
67892;PMS7003;54688;52.376;16.744;2024-02-16T05:37:25;50;39;
67892;PMS7003;54688;52.376;16.744;2024-02-16T05:40:27;52;42;
67892;PMS7003;54688;52.376;16.744;2024-02-16T05:43:29;54;44;
67892;PMS7003;54688;52.376;16.744;2024-02-16T05:46:31;55;44;
67892;PMS7003;54688;52.376;16.744;2024-02-16T05:49:33;72;55;
67892;PMS7003;54688;52.376;16.744;2024-02-16T05:52:36;62;48;
67892;PMS7003;54688;52.376;16.744;2024-02-16T05:55:38;51;43;
67892;PMS7003;54688;52.376;16.744;2024-02-16T05:58:41;52;41;
67892;PMS7003;54688;52.376;16.744;2024-02-16T06:01:43;47;39;
67892;PMS7003;54688;52.376;16.744;2024-02-16T06:04:45;50;42;
67892;PMS7003;54688;52.376;16.744;2024-02-16T06:07:47;49;41;
67892;PMS7003;54688;52.376;16.744;2024-02-16T06:10:49;51;41;
67892;PMS7003;54688;52.376;16.744;2024-02-16T06:13:52;47;39;
67892;PMS7003;54688;52.376;16.744;2024-02-16T06:16:54;54;43;
67892;PMS7003;54688;52.376;16.744;2024-02-16T06:19:57;58;46;
67892;PMS7003;54688;52.376;16.744;2024-02-16T06:23:00;51;42;
67892;PMS7003;54688;52.376;16.744;2024-02-16T06:26:02;50;38;
67892;PMS7003;54688;52.376;16.744;2024-02-16T06:29:06;52;43;
67892;PMS7003;54688;52.376;16.744;2024-02-16T06:32:08;45;39;
67892;PMS7003;54688;52.376;16.744;2024-02-16T06:35:11;50;38;
67892;PMS7003;54688;52.376;16.744;2024-02-16T06:38:13;45;39;
67892;PMS7003;54688;52.376;16.744;2024-02-16T06:41:15;47;37;
67892;PMS7003;54688;52.376;16.744;2024-02-16T06:44:17;50;40;
67892;PMS7003;54688;52.376;16.744;2024-02-16T06:47:20;53;41;
67892;PMS7003;54688;52.376;16.744;2024-02-16T06:50:22;55;43;
67892;PMS7003;54688;52.376;16.744;2024-02-16T06:53:25;60;44;
67892;PMS7003;54688;52.376;16.744;2024-02-16T06:56:27;61;46;
67892;PMS7003;54688;52.376;16.744;2024-02-16T06:59:30;67;48;
67892;PMS7003;54688;52.376;16.744;2024-02-16T07:02:32;67;48;
67892;PMS7003;54688;52.376;16.744;2024-02-16T07:05:34;70;50;
67892;PMS7003;54688;52.376;16.744;2024-02-16T07:08:36;63;46;
67892;PMS7003;54688;52.376;16.744;2024-02-16T07:11:39;57;45;
67892;PMS7003;54688;52.376;16.744;2024-02-16T07:14:41;58;43;
67892;PMS7003;54688;52.376;16.744;2024-02-16T07:17:43;57;43;
67892;PMS7003;54688;52.376;16.744;2024-02-16T07:20:45;54;40;
67892;PMS7003;54688;52.376;16.744;2024-02-16T07:23:47;51;39;
67892;PMS7003;54688;52.376;16.744;2024-02-16T07:26:50;49;36;
67892;PMS7003;54688;52.376;16.744;2024-02-16T07:29:53;49;37;
67892;PMS7003;54688;52.376;16.744;2024-02-16T07:32:56;43;36;
67892;PMS7003;54688;52.376;16.744;2024-02-16T07:35:58;50;39;
67892;PMS7003;54688;52.376;16.744;2024-02-16T07:39:01;49;40;
67892;PMS7003;54688;52.376;16.744;2024-02-16T07:42:03;46;37;
67892;PMS7003;54688;52.376;16.744;2024-02-16T07:45:06;47;38;
67892;PMS7003;54688;52.376;16.744;2024-02-16T07:48:08;45;37;
67892;PMS7003;54688;52.376;16.744;2024-02-16T07:51:11;40;34;
67892;PMS7003;54688;52.376;16.744;2024-02-16T07:54:13;49;38;
67892;PMS7003;54688;52.376;16.744;2024-02-16T07:57:16;45;35;
67892;PMS7003;54688;52.376;16.744;2024-02-16T08:00:18;39;32;
67892;PMS7003;54688;52.376;16.744;2024-02-16T08:03:20;44;37;
67892;PMS7003;54688;52.376;16.744;2024-02-16T08:06:25;38;33;
67892;PMS7003;54688;52.376;16.744;2024-02-16T08:09:27;35;32;
67892;PMS7003;54688;52.376;16.744;2024-02-16T08:12:29;42;36;
67892;PMS7003;54688;52.376;16.744;2024-02-16T08:15:31;40;34;
67892;PMS7003;54688;52.376;16.744;2024-02-16T08:18:34;43;34;
67892;PMS7003;54688;52.376;16.744;2024-02-16T08:21:36;34;30;
67892;PMS7003;54688;52.376;16.744;2024-02-16T08:24:39;32;30;
67892;PMS7003;54688;52.376;16.744;2024-02-16T08:27:41;38;32;
67892;PMS7003;54688;52.376;16.744;2024-02-16T08:30:43;37;32;
67892;PMS7003;54688;52.376;16.744;2024-02-16T08:33:46;39;30;
67892;PMS7003;54688;52.376;16.744;2024-02-16T08:36:49;43;32;
67892;PMS7003;54688;52.376;16.744;2024-02-16T08:39:51;35;31;
67892;PMS7003;54688;52.376;16.744;2024-02-16T08:42:54;37;32;
67892;PMS7003;54688;52.376;16.744;2024-02-16T08:45:57;36;33;
67892;PMS7003;54688;52.376;16.744;2024-02-16T08:49:00;43;34;
67892;PMS7003;54688;52.376;16.744;2024-02-16T08:52:03;38;34;
67892;PMS7003;54688;52.376;16.744;2024-02-16T08:55:06;42;35;
67892;PMS7003;54688;52.376;16.744;2024-02-16T08:58:09;32;30;
67892;PMS7003;54688;52.376;16.744;2024-02-16T09:01:12;29;29;
67892;PMS7003;54688;52.376;16.744;2024-02-16T09:04:15;33;28;
67892;PMS7003;54688;52.376;16.744;2024-02-16T09:07:17;36;31;
67892;PMS7003;54688;52.376;16.744;2024-02-16T09:10:19;38;32;
67892;PMS7003;54688;52.376;16.744;2024-02-16T09:13:24;34;30;
67892;PMS7003;54688;52.376;16.744;2024-02-16T09:16:27;41;33;
67892;PMS7003;54688;52.376;16.744;2024-02-16T09:19:29;33;30;
67892;PMS7003;54688;52.376;16.744;2024-02-16T09:22:32;40;32;
67892;PMS7003;54688;52.376;16.744;2024-02-16T09:25:35;34;31;
67892;PMS7003;54688;52.376;16.744;2024-02-16T09:28:39;40;32;
67892;PMS7003;54688;52.376;16.744;2024-02-16T09:31:42;42;35;
67892;PMS7003;54688;52.376;16.744;2024-02-16T09:34:45;31;30;
67892;PMS7003;54688;52.376;16.744;2024-02-16T09:37:48;33;30;
67892;PMS7003;54688;52.376;16.744;2024-02-16T09:40:50;27;26;
67892;PMS7003;54688;52.376;16.744;2024-02-16T09:43:52;30;27;
67892;PMS7003;54688;52.376;16.744;2024-02-16T09:46:55;35;31;
67892;PMS7003;54688;52.376;16.744;2024-02-16T09:49:57;34;28;
67892;PMS7003;54688;52.376;16.744;2024-02-16T09:53:03;30;27;
67892;PMS7003;54688;52.376;16.744;2024-02-16T09:56:06;34;30;
67892;PMS7003;54688;52.376;16.744;2024-02-16T09:59:08;35;30;
67892;PMS7003;54688;52.376;16.744;2024-02-16T10:02:10;34;31;
67892;PMS7003;54688;52.376;16.744;2024-02-16T10:05:15;29;27;
67892;PMS7003;54688;52.376;16.744;2024-02-16T10:08:18;31;26;
67892;PMS7003;54688;52.376;16.744;2024-02-16T10:11:21;34;24;
67892;PMS7003;54688;52.376;16.744;2024-02-16T10:14:23;30;29;
67892;PMS7003;54688;52.376;16.744;2024-02-16T10:17:27;32;30;
67892;PMS7003;54688;52.376;16.744;2024-02-16T10:20:30;31;28;
67892;PMS7003;54688;52.376;16.744;2024-02-16T10:23:32;32;29;
67892;PMS7003;54688;52.376;16.744;2024-02-16T10:26:36;32;29;
67892;PMS7003;54688;52.376;16.744;2024-02-16T10:29:40;30;27;
67892;PMS7003;54688;52.376;16.744;2024-02-16T10:32:45;30;26;
67892;PMS7003;54688;52.376;16.744;2024-02-16T10:35:50;30;24;
67892;PMS7003;54688;52.376;16.744;2024-02-16T10:38:55;37;30;
67892;PMS7003;54688;52.376;16.744;2024-02-16T10:41:58;36;30;
67892;PMS7003;54688;52.376;16.744;2024-02-16T10:45:03;44;33;
67892;PMS7003;54688;52.376;16.744;2024-02-16T10:48:06;40;31;
67892;PMS7003;54688;52.376;16.744;2024-02-16T10:51:09;33;30;
67892;PMS7003;54688;52.376;16.744;2024-02-16T10:54:15;34;29;
67892;PMS7003;54688;52.376;16.744;2024-02-16T10:57:19;36;31;
67892;PMS7003;54688;52.376;16.744;2024-02-16T11:00:22;28;26;
67892;PMS7003;54688;52.376;16.744;2024-02-16T11:03:25;31;27;
67892;PMS7003;54688;52.376;16.744;2024-02-16T11:06:28;32;24;
67892;PMS7003;54688;52.376;16.744;2024-02-16T11:09:34;40;34;
67892;PMS7003;54688;52.376;16.744;2024-02-16T11:12:37;36;32;
67892;PMS7003;54688;52.376;16.744;2024-02-16T11:15:39;35;30;
67892;PMS7003;54688;52.376;16.744;2024-02-16T11:18:43;36;30;
67892;PMS7003;54688;52.376;16.744;2024-02-16T11:21:57;27;25;
67892;PMS7003;54688;52.376;16.744;2024-02-16T11:24:59;31;27;
67892;PMS7003;54688;52.376;16.744;2024-02-16T11:28:02;29;27;
67892;PMS7003;54688;52.376;16.744;2024-02-16T11:31:04;21;20;
67892;PMS7003;54688;52.376;16.744;2024-02-16T11:34:07;32;26;
67892;PMS7003;54688;52.376;16.744;2024-02-16T11:37:12;24;20;
67892;PMS7003;54688;52.376;16.744;2024-02-16T11:40:15;25;23;
67892;PMS7003;54688;52.376;16.744;2024-02-16T11:43:20;25;22;
67892;PMS7003;54688;52.376;16.744;2024-02-16T11:46:22;27;22;
67892;PMS7003;54688;52.376;16.744;2024-02-16T11:49:25;26;24;
67892;PMS7003;54688;52.376;16.744;2024-02-16T11:52:27;27;26;
67892;PMS7003;54688;52.376;16.744;2024-02-16T11:55:31;22;18;
67892;PMS7003;54688;52.376;16.744;2024-02-16T11:58:34;26;21;
67892;PMS7003;54688;52.376;16.744;2024-02-16T12:01:36;27;26;
67892;PMS7003;54688;52.376;16.744;2024-02-16T12:04:38;26;25;
67892;PMS7003;54688;52.376;16.744;2024-02-16T12:07:40;30;26;
67892;PMS7003;54688;52.376;16.744;2024-02-16T12:10:42;29;25;
67892;PMS7003;54688;52.376;16.744;2024-02-16T12:13:44;21;16;
67892;PMS7003;54688;52.376;16.744;2024-02-16T12:16:47;27;25;
67892;PMS7003;54688;52.376;16.744;2024-02-16T12:19:50;28;26;
67892;PMS7003;54688;52.376;16.744;2024-02-16T12:22:53;21;20;
67892;PMS7003;54688;52.376;16.744;2024-02-16T12:25:55;23;20;
67892;PMS7003;54688;52.376;16.744;2024-02-16T12:28:57;28;27;
67892;PMS7003;54688;52.376;16.744;2024-02-16T12:32:00;30;21;
67892;PMS7003;54688;52.376;16.744;2024-02-16T12:35:02;25;19;
67892;PMS7003;54688;52.376;16.744;2024-02-16T12:38:04;19;17;
67892;PMS7003;54688;52.376;16.744;2024-02-16T12:41:07;20;19;
67892;PMS7003;54688;52.376;16.744;2024-02-16T12:44:10;22;21;
67892;PMS7003;54688;52.376;16.744;2024-02-16T12:47:12;23;21;
67892;PMS7003;54688;52.376;16.744;2024-02-16T12:50:14;25;19;
67892;PMS7003;54688;52.376;16.744;2024-02-16T12:53:16;22;21;
67892;PMS7003;54688;52.376;16.744;2024-02-16T12:56:18;20;16;
67892;PMS7003;54688;52.376;16.744;2024-02-16T12:59:20;20;18;
67892;PMS7003;54688;52.376;16.744;2024-02-16T13:02:23;27;21;
67892;PMS7003;54688;52.376;16.744;2024-02-16T13:05:25;22;21;
67892;PMS7003;54688;52.376;16.744;2024-02-16T13:08:27;22;19;
67892;PMS7003;54688;52.376;16.744;2024-02-16T13:11:29;27;25;
67892;PMS7003;54688;52.376;16.744;2024-02-16T13:14:32;29;21;
67892;PMS7003;54688;52.376;16.744;2024-02-16T13:17:34;32;28;
67892;PMS7003;54688;52.376;16.744;2024-02-16T13:20:38;24;20;
67892;PMS7003;54688;52.376;16.744;2024-02-16T13:23:40;21;20;
67892;PMS7003;54688;52.376;16.744;2024-02-16T13:26:44;24;18;
67892;PMS7003;54688;52.376;16.744;2024-02-16T13:29:46;30;29;
67892;PMS7003;54688;52.376;16.744;2024-02-16T13:32:48;27;23;
67892;PMS7003;54688;52.376;16.744;2024-02-16T13:35:51;22;18;
67892;PMS7003;54688;52.376;16.744;2024-02-16T13:38:53;26;21;
67892;PMS7003;54688;52.376;16.744;2024-02-16T13:41:56;23;19;
67892;PMS7003;54688;52.376;16.744;2024-02-16T13:44:59;25;24;
67892;PMS7003;54688;52.376;16.744;2024-02-16T13:48:09;23;20;
67892;PMS7003;54688;52.376;16.744;2024-02-16T13:51:11;27;26;
67892;PMS7003;54688;52.376;16.744;2024-02-16T13:54:13;25;23;
67892;PMS7003;54688;52.376;16.744;2024-02-16T13:57:15;24;22;
67892;PMS7003;54688;52.376;16.744;2024-02-16T14:00:18;21;20;
67892;PMS7003;54688;52.376;16.744;2024-02-16T14:03:21;26;23;
67892;PMS7003;54688;52.376;16.744;2024-02-16T14:06:23;21;20;
67892;PMS7003;54688;52.376;16.744;2024-02-16T14:09:25;23;21;
67892;PMS7003;54688;52.376;16.744;2024-02-16T14:12:27;27;24;
67892;PMS7003;54688;52.376;16.744;2024-02-16T14:15:30;26;23;
67892;PMS7003;54688;52.376;16.744;2024-02-16T14:18:32;30;25;
67892;PMS7003;54688;52.376;16.744;2024-02-16T14:21:34;29;26;
67892;PMS7003;54688;52.376;16.744;2024-02-16T14:24:37;25;25;
67892;PMS7003;54688;52.376;16.744;2024-02-16T14:27:40;26;25;
67892;PMS7003;54688;52.376;16.744;2024-02-16T14:30:42;25;20;
67892;PMS7003;54688;52.376;16.744;2024-02-16T14:33:43;21;20;
67892;PMS7003;54688;52.376;16.744;2024-02-16T14:36:46;27;24;
67892;PMS7003;54688;52.376;16.744;2024-02-16T14:39:48;21;20;
67892;PMS7003;54688;52.376;16.744;2024-02-16T14:45:49;21;20;
67892;PMS7003;54688;52.376;16.744;2024-02-16T14:48:51;19;18;
67892;PMS7003;54688;52.376;16.744;2024-02-16T14:51:53;25;22;
67892;PMS7003;54688;52.376;16.744;2024-02-16T14:54:55;18;18;
67892;PMS7003;54688;52.376;16.744;2024-02-16T14:57:58;22;21;
67892;PMS7003;54688;52.376;16.744;2024-02-16T15:01:00;26;20;
67892;PMS7003;54688;52.376;16.744;2024-02-16T15:04:02;22;21;
67892;PMS7003;54688;52.376;16.744;2024-02-16T15:07:04;22;18;
67892;PMS7003;54688;52.376;16.744;2024-02-16T15:10:08;21;19;
67892;PMS7003;54688;52.376;16.744;2024-02-16T15:13:10;27;19;
67892;PMS7003;54688;52.376;16.744;2024-02-16T15:16:12;26;24;
67892;PMS7003;54688;52.376;16.744;2024-02-16T15:19:15;28;22;
67892;PMS7003;54688;52.376;16.744;2024-02-16T15:22:17;21;21;
67892;PMS7003;54688;52.376;16.744;2024-02-16T15:25:20;21;21;
67892;PMS7003;54688;52.376;16.744;2024-02-16T15:28:22;27;23;
67892;PMS7003;54688;52.376;16.744;2024-02-16T15:31:24;24;21;
67892;PMS7003;54688;52.376;16.744;2024-02-16T15:34:27;26;22;
67892;PMS7003;54688;52.376;16.744;2024-02-16T15:37:30;26;23;
67892;PMS7003;54688;52.376;16.744;2024-02-16T15:40:32;23;21;
67892;PMS7003;54688;52.376;16.744;2024-02-16T15:43:34;19;18;
67892;PMS7003;54688;52.376;16.744;2024-02-16T15:46:36;22;22;
67892;PMS7003;54688;52.376;16.744;2024-02-16T15:49:39;35;30;
67892;PMS7003;54688;52.376;16.744;2024-02-16T15:52:41;38;32;
67892;PMS7003;54688;52.376;16.744;2024-02-16T15:55:43;51;40;
67892;PMS7003;54688;52.376;16.744;2024-02-16T15:58:46;43;35;
67892;PMS7003;54688;52.376;16.744;2024-02-16T16:01:47;48;38;
67892;PMS7003;54688;52.376;16.744;2024-02-16T16:04:50;39;35;
67892;PMS7003;54688;52.376;16.744;2024-02-16T16:07:52;42;34;
67892;PMS7003;54688;52.376;16.744;2024-02-16T16:10:55;46;36;
67892;PMS7003;54688;52.376;16.744;2024-02-16T16:13:57;47;38;
67892;PMS7003;54688;52.376;16.744;2024-02-16T16:16:59;39;33;
67892;PMS7003;54688;52.376;16.744;2024-02-16T16:20:03;35;31;
67892;PMS7003;54688;52.376;16.744;2024-02-16T16:23:05;35;27;
67892;PMS7003;54688;52.376;16.744;2024-02-16T16:26:08;30;29;
67892;PMS7003;54688;52.376;16.744;2024-02-16T16:29:10;40;32;
67892;PMS7003;54688;52.376;16.744;2024-02-16T16:32:12;39;31;
67892;PMS7003;54688;52.376;16.744;2024-02-16T16:35:15;34;31;
67892;PMS7003;54688;52.376;16.744;2024-02-16T16:38:18;47;38;
67892;PMS7003;54688;52.376;16.744;2024-02-16T16:41:20;46;38;
67892;PMS7003;54688;52.376;16.744;2024-02-16T16:44:22;48;38;
67892;PMS7003;54688;52.376;16.744;2024-02-16T16:47:25;50;37;
67892;PMS7003;54688;52.376;16.744;2024-02-16T16:50:27;50;40;
67892;PMS7003;54688;52.376;16.744;2024-02-16T16:53:29;52;38;
67892;PMS7003;54688;52.376;16.744;2024-02-16T16:56:31;49;39;
67892;PMS7003;54688;52.376;16.744;2024-02-16T16:59:33;47;39;
67892;PMS7003;54688;52.376;16.744;2024-02-16T17:02:35;48;39;
67892;PMS7003;54688;52.376;16.744;2024-02-16T17:05:37;50;39;
67892;PMS7003;54688;52.376;16.744;2024-02-16T17:08:39;50;39;
67892;PMS7003;54688;52.376;16.744;2024-02-16T17:11:41;52;38;
67892;PMS7003;54688;52.376;16.744;2024-02-16T17:14:44;53;39;
67892;PMS7003;54688;52.376;16.744;2024-02-16T17:17:46;44;38;
67892;PMS7003;54688;52.376;16.744;2024-02-16T17:20:48;48;36;
67892;PMS7003;54688;52.376;16.744;2024-02-16T17:23:50;45;35;
67892;PMS7003;54688;52.376;16.744;2024-02-16T17:26:53;45;35;
67892;PMS7003;54688;52.376;16.744;2024-02-16T17:29:56;34;31;
67892;PMS7003;54688;52.376;16.744;2024-02-16T17:32:58;37;32;
67892;PMS7003;54688;52.376;16.744;2024-02-16T17:36:01;33;30;
67892;PMS7003;54688;52.376;16.744;2024-02-16T17:39:03;27;25;
67892;PMS7003;54688;52.376;16.744;2024-02-16T17:42:06;28;25;
67892;PMS7003;54688;52.376;16.744;2024-02-16T17:45:09;37;34;
67892;PMS7003;54688;52.376;16.744;2024-02-16T17:48:11;37;32;
67892;PMS7003;54688;52.376;16.744;2024-02-16T17:51:14;30;29;
67892;PMS7003;54688;52.376;16.744;2024-02-16T17:54:16;26;23;
67892;PMS7003;54688;52.376;16.744;2024-02-16T17:57:19;26;25;
67892;PMS7003;54688;52.376;16.744;2024-02-16T18:00:21;33;29;
67892;PMS7003;54688;52.376;16.744;2024-02-16T18:03:23;25;23;
67892;PMS7003;54688;52.376;16.744;2024-02-16T18:06:26;24;24;
67892;PMS7003;54688;52.376;16.744;2024-02-16T18:09:28;25;21;
67892;PMS7003;54688;52.376;16.744;2024-02-16T18:12:32;31;27;
67892;PMS7003;54688;52.376;16.744;2024-02-16T18:15:33;27;26;
67892;PMS7003;54688;52.376;16.744;2024-02-16T18:18:36;37;32;
67892;PMS7003;54688;52.376;16.744;2024-02-16T18:21:38;39;33;
67892;PMS7003;54688;52.376;16.744;2024-02-16T18:24:41;32;29;
67892;PMS7003;54688;52.376;16.744;2024-02-16T18:27:44;34;27;
67892;PMS7003;54688;52.376;16.744;2024-02-16T18:30:46;43;34;
67892;PMS7003;54688;52.376;16.744;2024-02-16T18:33:49;35;30;
67892;PMS7003;54688;52.376;16.744;2024-02-16T18:36:51;28;25;
67892;PMS7003;54688;52.376;16.744;2024-02-16T18:39:54;29;27;
67892;PMS7003;54688;52.376;16.744;2024-02-16T18:42:56;27;26;
67892;PMS7003;54688;52.376;16.744;2024-02-16T18:45:59;30;28;
67892;PMS7003;54688;52.376;16.744;2024-02-16T18:49:01;42;36;
67892;PMS7003;54688;52.376;16.744;2024-02-16T18:52:04;55;43;
67892;PMS7003;54688;52.376;16.744;2024-02-16T18:55:06;60;45;
67892;PMS7003;54688;52.376;16.744;2024-02-16T18:58:08;58;45;
67892;PMS7003;54688;52.376;16.744;2024-02-16T19:01:14;56;44;
67892;PMS7003;54688;52.376;16.744;2024-02-16T19:04:15;58;46;
67892;PMS7003;54688;52.376;16.744;2024-02-16T19:07:17;59;46;
67892;PMS7003;54688;52.376;16.744;2024-02-16T19:10:20;58;46;
67892;PMS7003;54688;52.376;16.744;2024-02-16T19:13:22;59;45;
67892;PMS7003;54688;52.376;16.744;2024-02-16T19:16:25;64;49;
67892;PMS7003;54688;52.376;16.744;2024-02-16T19:19:27;66;50;
67892;PMS7003;54688;52.376;16.744;2024-02-16T19:22:30;61;49;
67892;PMS7003;54688;52.376;16.744;2024-02-16T19:25:33;60;48;
67892;PMS7003;54688;52.376;16.744;2024-02-16T19:28:35;59;46;
67892;PMS7003;54688;52.376;16.744;2024-02-16T19:31:38;61;46;
67892;PMS7003;54688;52.376;16.744;2024-02-16T19:34:41;60;46;
67892;PMS7003;54688;52.376;16.744;2024-02-16T19:37:43;56;45;
67892;PMS7003;54688;52.376;16.744;2024-02-16T19:40:47;56;42;
67892;PMS7003;54688;52.376;16.744;2024-02-16T19:43:50;51;42;
67892;PMS7003;54688;52.376;16.744;2024-02-16T19:46:53;55;43;
67892;PMS7003;54688;52.376;16.744;2024-02-16T19:49:55;58;46;
67892;PMS7003;54688;52.376;16.744;2024-02-16T19:52:57;53;42;
67892;PMS7003;54688;52.376;16.744;2024-02-16T19:55:59;48;39;